createdAt,value
2017-03-29T00:00:21.968Z,1004.17
2017-03-29T00:01:31.989Z,1004.22
2017-03-29T00:02:42.348Z,1004.2
2017-03-29T00:03:52.702Z,1004.2
2017-03-29T00:05:02.759Z,1004.15
2017-03-29T00:06:13.101Z,1004.19
2017-03-29T00:07:23.434Z,1004.15
2017-03-29T00:08:33.470Z,1004.21
2017-03-29T00:09:43.498Z,1004.11
2017-03-29T00:10:53.833Z,1004.17
2017-03-29T00:12:03.865Z,1004.17
2017-03-29T00:13:14.198Z,1004.18
2017-03-29T00:14:24.235Z,1004.16
2017-03-29T00:15:34.572Z,1004.18
2017-03-29T00:16:44.615Z,1004.17
2017-03-29T00:17:54.645Z,1004.19
2017-03-29T00:19:05.004Z,1004.15
2017-03-29T00:20:14.416Z,1004.17
2017-03-29T00:21:24.783Z,1004.16
2017-03-29T00:22:35.132Z,1004.17
2017-03-29T00:23:44.871Z,1004.16
2017-03-29T00:24:54.894Z,1004.19
2017-03-29T00:26:04.921Z,1004.23
2017-03-29T00:27:15.260Z,1004.19
2017-03-29T00:28:25.279Z,1004.19
2017-03-29T00:29:35.002Z,1004.17
2017-03-29T00:30:45.325Z,1004.15
2017-03-29T00:31:55.680Z,1004.13
2017-03-29T00:33:06.027Z,1004.12
2017-03-29T00:34:16.356Z,1004.17
2017-03-29T00:35:26.694Z,1004.17
2017-03-29T00:36:36.718Z,1004.16
2017-03-29T00:37:47.049Z,1004.18
2017-03-29T00:38:57.074Z,1004.15
2017-03-29T00:40:07.108Z,1004.18
2017-03-29T00:41:17.434Z,1004.14
2017-03-29T00:42:27.140Z,1004.18
2017-03-29T00:43:37.170Z,1004.14
2017-03-29T00:44:47.522Z,1004.12
2017-03-29T00:45:57.867Z,1004.19
2017-03-29T00:47:08.207Z,1004.15
2017-03-29T00:48:18.583Z,1004.16
2017-03-29T00:49:28.597Z,1004.17
2017-03-29T00:50:38.636Z,1004.18
2017-03-29T00:51:48.979Z,1004.19
2017-03-29T00:52:59.007Z,1004.2
2017-03-29T00:54:09.364Z,1004.18
2017-03-29T00:55:19.397Z,1004.18
2017-03-29T00:56:29.756Z,1004.23
2017-03-29T00:57:40.082Z,1004.24
2017-03-29T00:58:50.424Z,1004.2
2017-03-29T01:00:00.450Z,1004.23
2017-03-29T01:01:09.846Z,1004.28
2017-03-29T01:02:19.873Z,1004.25
2017-03-29T01:03:29.898Z,1004.28
2017-03-29T01:04:39.923Z,1004.29
2017-03-29T01:05:49.945Z,1004.3
2017-03-29T01:06:59.968Z,1004.28
2017-03-29T01:08:09.998Z,1004.32
2017-03-29T01:09:20.025Z,1004.27
2017-03-29T01:10:29.730Z,1004.29
2017-03-29T01:11:40.072Z,1004.28
2017-03-29T01:12:50.424Z,1004.27
2017-03-29T01:14:00.445Z,1004.27
2017-03-29T01:15:10.782Z,1004.28
2017-03-29T01:16:21.108Z,1004.29
2017-03-29T01:17:31.455Z,1004.3
2017-03-29T01:18:41.785Z,1004.26
2017-03-29T01:19:51.835Z,1004.25
2017-03-29T01:21:02.205Z,1004.29
2017-03-29T01:22:12.545Z,1004.3
2017-03-29T01:23:22.585Z,1004.33
2017-03-29T01:24:32.623Z,1004.33
2017-03-29T01:25:42.964Z,1004.33
2017-03-29T01:26:53.321Z,1004.32
2017-03-29T01:28:03.667Z,1004.35
2017-03-29T01:29:13.390Z,1004.33
2017-03-29T01:30:23.715Z,1004.36
2017-03-29T01:31:34.078Z,1004.36
2017-03-29T01:32:44.331Z,1004.35
2017-03-29T01:33:54.655Z,1004.37
2017-03-29T01:35:04.366Z,1004.36
2017-03-29T01:36:14.416Z,1004.34
2017-03-29T01:37:24.753Z,1004.35
2017-03-29T01:38:34.779Z,1004.38
2017-03-29T01:39:45.114Z,1004.36
2017-03-29T01:40:55.152Z,1004.34
2017-03-29T01:42:05.513Z,1004.33
2017-03-29T01:43:14.929Z,1004.35
2017-03-29T01:44:24.637Z,1004.31
2017-03-29T01:45:34.973Z,1004.33
2017-03-29T01:46:45.315Z,1004.37
2017-03-29T01:47:55.652Z,1004.37
2017-03-29T01:49:05.997Z,1004.39
2017-03-29T01:50:16.325Z,1004.44
2017-03-29T01:51:26.677Z,1004.44
2017-03-29T01:52:37.032Z,1004.42
2017-03-29T01:53:47.075Z,1004.39
2017-03-29T01:54:57.420Z,1004.41
2017-03-29T01:56:07.775Z,1004.41
2017-03-29T01:57:18.116Z,1004.39
2017-03-29T01:58:28.456Z,1004.42
2017-03-29T01:59:38.790Z,1004.39
2017-03-29T02:00:48.871Z,1004.41
2017-03-29T02:01:59.216Z,1004.4
2017-03-29T02:03:09.550Z,1004.4
2017-03-29T02:04:19.887Z,1004.42
2017-03-29T02:05:29.897Z,1004.43
2017-03-29T02:06:39.839Z,1004.37
2017-03-29T02:07:49.850Z,1004.42
2017-03-29T02:08:59.566Z,1004.42
2017-03-29T02:10:09.593Z,1004.42
2017-03-29T02:11:19.606Z,1004.39
2017-03-29T02:12:29.951Z,1004.39
2017-03-29T02:13:40.019Z,1004.42
2017-03-29T02:14:50.346Z,1004.44
2017-03-29T02:16:00.697Z,1004.42
2017-03-29T02:17:10.753Z,1004.41
2017-03-29T02:18:20.796Z,1004.41
2017-03-29T02:19:30.501Z,1004.42
2017-03-29T02:20:40.528Z,1004.42
2017-03-29T02:21:50.876Z,1004.38
2017-03-29T02:23:00.924Z,1004.39
2017-03-29T02:24:10.938Z,1004.41
2017-03-29T02:25:21.295Z,1004.46
2017-03-29T02:26:31.651Z,1004.43
2017-03-29T02:27:41.670Z,1004.44
2017-03-29T02:28:52.051Z,1004.45
2017-03-29T02:30:02.396Z,1004.48
2017-03-29T02:31:12.777Z,1004.49
2017-03-29T02:32:23.116Z,1004.47
2017-03-29T02:33:33.151Z,1004.5
2017-03-29T02:34:43.517Z,1004.51
2017-03-29T02:35:53.866Z,1004.51
2017-03-29T02:37:04.204Z,1004.5
2017-03-29T02:38:14.210Z,1004.52
2017-03-29T02:39:23.928Z,1004.57
2017-03-29T02:40:34.255Z,1004.52
2017-03-29T02:41:44.586Z,1004.5
2017-03-29T02:42:54.615Z,1004.54
2017-03-29T02:44:04.988Z,1004.51
2017-03-29T02:45:15.336Z,1004.51
2017-03-29T02:46:25.663Z,1004.54
2017-03-29T02:47:36.011Z,1004.51
2017-03-29T02:48:46.350Z,1004.53
2017-03-29T02:49:56.428Z,1004.51
2017-03-29T02:51:06.454Z,1004.47
2017-03-29T02:52:16.787Z,1004.47
2017-03-29T02:53:27.122Z,1004.43
2017-03-29T02:54:37.460Z,1004.5
2017-03-29T02:55:47.782Z,1004.47
2017-03-29T02:56:57.814Z,1004.48
2017-03-29T02:58:07.854Z,1004.47
2017-03-29T02:59:18.200Z,1004.44
2017-03-29T03:00:28.551Z,1004.43
2017-03-29T03:01:38.884Z,1004.47
2017-03-29T03:32:16.294Z,1004.55
2017-03-29T03:33:26.624Z,1004.53
2017-03-29T03:34:36.952Z,1004.56
2017-03-29T03:35:47.302Z,1004.55
2017-03-29T03:36:57.641Z,1004.55
2017-03-29T03:38:07.648Z,1004.53
2017-03-29T03:39:17.982Z,1004.57
2017-03-29T03:40:28.017Z,1004.56
2017-03-29T03:41:38.036Z,1004.59
2017-03-29T03:42:48.413Z,1004.56
2017-03-29T03:43:58.439Z,1004.56
2017-03-29T03:45:08.794Z,1004.58
2017-03-29T03:46:19.124Z,1004.61
2017-03-29T03:47:29.184Z,1004.6
2017-03-29T03:48:39.229Z,1004.63
2017-03-29T03:49:49.253Z,1004.63
2017-03-29T03:50:59.596Z,1004.64
2017-03-29T03:52:09.641Z,1004.65
2017-03-29T03:53:20.008Z,1004.63
2017-03-29T03:54:30.347Z,1004.63
2017-03-29T03:55:40.378Z,1004.62
2017-03-29T03:56:50.715Z,1004.65
2017-03-29T03:58:01.059Z,1004.65
2017-03-29T03:59:11.392Z,1004.65
2017-03-29T04:00:21.725Z,1004.67
2017-03-29T04:01:32.062Z,1004.67
2017-03-29T04:02:41.788Z,1004.65
2017-03-29T04:03:52.142Z,1004.64
2017-03-29T04:05:01.856Z,1004.67
2017-03-29T04:06:11.877Z,1004.62
2017-03-29T04:07:21.896Z,1004.65
2017-03-29T04:08:32.272Z,1004.69
2017-03-29T04:09:42.617Z,1004.66
2017-03-29T04:10:52.981Z,1004.65
2017-03-29T04:12:03.019Z,1004.66
2017-03-29T04:13:13.033Z,1004.67
2017-03-29T04:14:23.356Z,1004.7
2017-03-29T04:15:33.701Z,1004.66
2017-03-29T04:16:44.058Z,1004.66
2017-03-29T04:17:54.076Z,1004.7
2017-03-29T04:19:04.407Z,1004.7
2017-03-29T04:20:14.452Z,1004.66
2017-03-29T04:21:24.766Z,1004.73
2017-03-29T04:22:34.796Z,1004.71
2017-03-29T04:23:44.537Z,1004.7
2017-03-29T04:24:54.246Z,1004.7
2017-03-29T04:26:04.268Z,1004.74
2017-03-29T04:27:14.278Z,1004.72
2017-03-29T04:28:24.320Z,1004.75
2017-03-29T04:29:34.657Z,1004.74
2017-03-29T04:30:44.994Z,1004.74
2017-03-29T04:31:55.011Z,1004.72
2017-03-29T04:33:05.343Z,1004.77
2017-03-29T04:34:15.688Z,1004.75
2017-03-29T04:35:26.025Z,1004.71
2017-03-29T04:36:36.360Z,1004.72
2017-03-29T04:37:46.719Z,1004.74
2017-03-29T04:38:57.097Z,1004.74
2017-03-29T04:40:07.446Z,1004.73
2017-03-29T04:41:17.773Z,1004.74
2017-03-29T04:42:27.797Z,1004.75
2017-03-29T04:43:38.125Z,1004.77
2017-03-29T04:44:48.459Z,1004.76
2017-03-29T04:45:58.795Z,1004.78
2017-03-29T04:47:08.818Z,1004.76
2017-03-29T04:48:19.154Z,1004.76
2017-03-29T04:49:29.177Z,1004.81
2017-03-29T04:50:39.519Z,1004.78
2017-03-29T04:51:49.870Z,1004.81
2017-03-29T04:53:00.261Z,1004.82
2017-03-29T04:54:10.305Z,1004.79
2017-03-29T04:55:20.660Z,1004.78
2017-03-29T04:56:31.001Z,1004.78
2017-03-29T04:57:41.034Z,1004.8
2017-03-29T04:58:51.395Z,1004.79
2017-03-29T05:00:01.746Z,1004.77
2017-03-29T05:01:12.313Z,1004.83
2017-03-29T05:02:22.015Z,1004.89
2017-03-29T05:03:32.052Z,1004.88
2017-03-29T05:04:42.391Z,1004.87
2017-03-29T05:05:52.734Z,1004.89
2017-03-29T05:07:02.788Z,1004.89
2017-03-29T05:08:12.808Z,1004.95
2017-03-29T05:09:22.828Z,1004.98
2017-03-29T05:10:33.156Z,1004.98
2017-03-29T05:11:43.494Z,1005.01
2017-03-29T05:12:53.525Z,1004.92
2017-03-29T05:14:03.544Z,1004.88
2017-03-29T05:15:13.869Z,1004.86
2017-03-29T05:16:23.890Z,1004.92
2017-03-29T05:17:33.903Z,1004.91
2017-03-29T05:18:43.613Z,1004.9
2017-03-29T05:19:53.956Z,1004.89
2017-03-29T05:21:04.303Z,1004.91
2017-03-29T05:22:14.640Z,1004.93
2017-03-29T05:23:24.977Z,1004.91
2017-03-29T05:24:34.694Z,1004.9
2017-03-29T05:25:45.030Z,1004.9
2017-03-29T05:26:55.381Z,1004.88
2017-03-29T05:28:05.716Z,1004.93
2017-03-29T05:29:15.741Z,1004.95
2017-03-29T05:30:26.079Z,1004.91
2017-03-29T05:31:36.429Z,1004.98
2017-03-29T05:32:46.140Z,1004.94
2017-03-29T05:33:56.491Z,1004.95
2017-03-29T05:35:06.518Z,1004.96
2017-03-29T05:36:16.884Z,1004.95
2017-03-29T05:37:27.235Z,1004.95
2017-03-29T05:38:37.249Z,1004.96
2017-03-29T05:39:47.276Z,1005.01
2017-03-29T05:40:57.614Z,1005.04
2017-03-29T05:42:07.643Z,1005.04
2017-03-29T05:43:17.686Z,1005.09
2017-03-29T05:44:27.717Z,1005.1
2017-03-29T05:45:38.081Z,1005.1
2017-03-29T05:46:48.420Z,1005.1
2017-03-29T05:47:58.452Z,1005.09
2017-03-29T05:49:08.493Z,1005.1
2017-03-29T05:50:18.538Z,1005.16
2017-03-29T05:51:28.875Z,1005.17
2017-03-29T05:52:39.219Z,1005.2
2017-03-29T05:53:49.235Z,1005.19
2017-03-29T05:54:59.263Z,1005.26
2017-03-29T05:56:09.584Z,1005.25
2017-03-29T05:57:19.639Z,1005.25
2017-03-29T05:58:29.979Z,1005.25
2017-03-29T05:59:40.310Z,1005.21
2017-03-29T06:00:50.365Z,1005.24
2017-03-29T06:02:00.095Z,1005.24
2017-03-29T06:03:10.438Z,1005.28
2017-03-29T06:04:20.463Z,1005.26
2017-03-29T06:05:30.803Z,1005.24
2017-03-29T06:06:41.144Z,1005.24
2017-03-29T06:07:51.489Z,1005.26
2017-03-29T06:09:01.833Z,1005.28
2017-03-29T06:10:11.869Z,1005.3
2017-03-29T06:11:22.233Z,1005.24
2017-03-29T06:12:32.573Z,1005.28
2017-03-29T06:13:42.908Z,1005.29
2017-03-29T06:14:52.961Z,1005.27
2017-03-29T06:16:02.998Z,1005.29
2017-03-29T06:17:13.346Z,1005.27
2017-03-29T06:18:23.686Z,1005.3
2017-03-29T06:19:34.023Z,1005.26
2017-03-29T06:20:44.040Z,1005.27
2017-03-29T06:21:54.371Z,1005.28
2017-03-29T06:23:04.718Z,1005.29
2017-03-29T06:24:15.088Z,1005.29
2017-03-29T06:25:24.817Z,1005.28
2017-03-29T06:26:34.843Z,1005.28
2017-03-29T06:27:44.880Z,1005.26
2017-03-29T06:28:55.217Z,1005.29
2017-03-29T06:30:04.924Z,1005.29
2017-03-29T06:31:15.251Z,1005.35
2017-03-29T06:32:25.607Z,1005.3
2017-03-29T06:33:35.934Z,1005.32
2017-03-29T06:34:45.647Z,1005.3
2017-03-29T06:35:55.979Z,1005.32
2017-03-29T06:37:06.329Z,1005.32
2017-03-29T06:38:16.369Z,1005.33
2017-03-29T06:39:26.402Z,1005.34
2017-03-29T06:40:36.730Z,1005.32
2017-03-29T06:41:46.790Z,1005.32
2017-03-29T06:42:56.833Z,1005.35
2017-03-29T06:44:06.864Z,1005.35
2017-03-29T06:45:16.923Z,1005.31
2017-03-29T06:46:27.283Z,1005.28
2017-03-29T06:47:37.628Z,1005.31
2017-03-29T06:48:47.664Z,1005.29
2017-03-29T06:49:58.008Z,1005.32
2017-03-29T06:51:08.397Z,1005.31
2017-03-29T06:52:18.430Z,1005.31
2017-03-29T06:53:28.777Z,1005.28
2017-03-29T06:54:38.487Z,1005.32
2017-03-29T06:55:48.832Z,1005.31
2017-03-29T06:56:59.188Z,1005.32
2017-03-29T06:58:09.539Z,1005.28
2017-03-29T06:59:19.567Z,1005.32
2017-03-29T07:00:29.919Z,1005.37
2017-03-29T07:01:40.271Z,1005.39
2017-03-29T07:02:50.612Z,1005.4
2017-03-29T07:04:00.720Z,1005.37
2017-03-29T07:05:11.247Z,1005.35
2017-03-29T07:06:22.148Z,1005.38
2017-03-29T07:07:32.493Z,1005.44
2017-03-29T07:08:42.841Z,1005.4
2017-03-29T07:09:53.170Z,1005.43
2017-03-29T07:11:03.539Z,1005.48
2017-03-29T07:12:13.890Z,1005.46
2017-03-29T07:13:24.219Z,1005.49
2017-03-29T07:14:34.629Z,1005.52
2017-03-29T07:15:44.657Z,1005.5
2017-03-29T07:16:55.001Z,1005.51
2017-03-29T07:18:05.334Z,1005.5
2017-03-29T07:19:15.716Z,1005.44
2017-03-29T07:20:25.765Z,1005.49
2017-03-29T07:21:36.122Z,1005.5
2017-03-29T07:22:46.184Z,1005.52
2017-03-29T07:23:55.898Z,1005.6
2017-03-29T07:25:05.944Z,1005.51
2017-03-29T07:26:16.289Z,1005.48
2017-03-29T07:27:26.656Z,1005.53
2017-03-29T07:28:36.388Z,1005.52
2017-03-29T07:29:46.761Z,1005.51
2017-03-29T07:30:56.791Z,1005.5
2017-03-29T07:32:07.134Z,1005.53
2017-03-29T07:33:17.480Z,1005.48
2017-03-29T07:34:27.818Z,1005.51
2017-03-29T07:35:38.162Z,1005.47
2017-03-29T07:36:48.508Z,1005.48
2017-03-29T07:37:58.536Z,1005.49
2017-03-29T07:39:08.870Z,1005.49
2017-03-29T07:40:19.212Z,1005.53
2017-03-29T07:41:29.557Z,1005.52
2017-03-29T07:42:39.662Z,1005.46
2017-03-29T07:43:49.952Z,1005.45
2017-03-29T07:44:59.984Z,1005.45
2017-03-29T07:46:09.699Z,1005.45
2017-03-29T07:47:19.726Z,1005.46
2017-03-29T07:48:29.784Z,1005.43
2017-03-29T07:49:40.140Z,1005.46
2017-03-29T07:50:50.485Z,1005.43
2017-03-29T07:52:00.870Z,1005.44
2017-03-29T07:53:11.358Z,1005.5
2017-03-29T07:54:21.383Z,1005.51
2017-03-29T07:55:31.762Z,1005.47
2017-03-29T07:56:42.160Z,1005.51
2017-03-29T07:57:52.192Z,1005.48
2017-03-29T07:59:02.249Z,1005.47
2017-03-29T08:00:12.631Z,1005.5
2017-03-29T08:01:22.982Z,1005.53
2017-03-29T08:02:33.013Z,1005.57
2017-03-29T08:03:43.360Z,1005.51
2017-03-29T08:04:53.726Z,1005.5
2017-03-29T08:06:03.763Z,1005.54
2017-03-29T08:07:14.119Z,1005.55
2017-03-29T08:08:24.469Z,1005.55
2017-03-29T08:09:34.194Z,1005.53
2017-03-29T08:10:44.545Z,1005.56
2017-03-29T08:11:54.893Z,1005.51
2017-03-29T08:13:05.245Z,1005.5
2017-03-29T08:14:15.274Z,1005.49
2017-03-29T08:15:25.605Z,1005.54
2017-03-29T08:16:35.650Z,1005.55
2017-03-29T08:17:45.696Z,1005.63
2017-03-29T08:18:56.042Z,1005.62
2017-03-29T08:20:06.085Z,1005.57
2017-03-29T08:21:16.121Z,1005.63
2017-03-29T08:22:25.847Z,1005.67
2017-03-29T08:23:36.201Z,1005.67
2017-03-29T08:24:46.536Z,1005.68
2017-03-29T08:25:56.888Z,1005.71
2017-03-29T08:27:07.224Z,1005.66
2017-03-29T08:28:17.236Z,1005.71
2017-03-29T08:29:27.286Z,1005.67
2017-03-29T08:30:37.662Z,1005.69
2017-03-29T08:31:47.698Z,1005.68
2017-03-29T08:32:57.732Z,1005.69
2017-03-29T08:34:08.070Z,1005.66
2017-03-29T08:35:18.425Z,1005.71
2017-03-29T08:36:28.781Z,1005.7
2017-03-29T08:37:39.174Z,1005.73
2017-03-29T08:38:49.215Z,1005.74
2017-03-29T08:39:59.258Z,1005.76
2017-03-29T08:41:09.289Z,1005.76
2017-03-29T08:42:19.331Z,1005.77
2017-03-29T08:43:29.377Z,1005.72
2017-03-29T08:44:39.727Z,1005.73
2017-03-29T08:45:50.106Z,1005.73
2017-03-29T08:47:00.455Z,1005.77
2017-03-29T08:48:10.796Z,1005.79
2017-03-29T08:49:20.842Z,1005.83
2017-03-29T08:50:31.185Z,1005.82
2017-03-29T08:51:41.552Z,1005.78
2017-03-29T08:52:51.588Z,1005.73
2017-03-29T08:54:01.684Z,1005.75
2017-03-29T08:55:11.716Z,1005.73
2017-03-29T08:56:22.051Z,1005.74
2017-03-29T08:57:32.427Z,1005.76
2017-03-29T08:58:42.780Z,1005.76
2017-03-29T08:59:53.136Z,1005.69
2017-03-29T09:01:03.490Z,1005.74
2017-03-29T09:02:13.536Z,1005.71
2017-03-29T09:03:23.886Z,1005.77
2017-03-29T09:04:33.963Z,1005.78
2017-03-29T09:05:44.310Z,1005.73
2017-03-29T09:06:54.652Z,1005.73
2017-03-29T09:08:05.022Z,1005.74
2017-03-29T09:09:15.058Z,1005.71
2017-03-29T09:10:25.409Z,1005.7
2017-03-29T09:11:35.766Z,1005.78
2017-03-29T09:12:45.809Z,1005.78
2017-03-29T09:13:56.207Z,1005.73
2017-03-29T09:15:06.329Z,1005.88
2017-03-29T09:16:16.677Z,1005.8
2017-03-29T09:17:27.023Z,1005.82
2017-03-29T09:18:37.378Z,1005.88
2017-03-29T09:19:47.760Z,1005.79
2017-03-29T09:20:57.779Z,1005.82
2017-03-29T09:22:08.130Z,1005.85
2017-03-29T09:23:18.488Z,1005.78
2017-03-29T09:24:28.832Z,1005.83
2017-03-29T09:25:39.192Z,1005.79
2017-03-29T09:26:49.582Z,1005.75
2017-03-29T09:27:59.947Z,1005.72
2017-03-29T09:29:09.665Z,1005.79
2017-03-29T09:30:20.023Z,1005.63
2017-03-29T09:31:30.393Z,1005.72
2017-03-29T09:32:40.114Z,1005.66
2017-03-29T09:33:50.152Z,1005.74
2017-03-29T09:35:00.489Z,1005.69
2017-03-29T09:36:10.595Z,1005.7
2017-03-29T09:37:20.947Z,1005.73
2017-03-29T09:38:30.994Z,1005.78
2017-03-29T09:39:41.035Z,1005.73
2017-03-29T09:40:51.388Z,1005.74
2017-03-29T09:42:01.736Z,1005.68
2017-03-29T09:43:12.087Z,1005.69
2017-03-29T09:44:22.164Z,1005.68
2017-03-29T09:45:32.186Z,1005.63
2017-03-29T09:46:42.536Z,1005.62
2017-03-29T09:47:52.624Z,1005.63
2017-03-29T09:49:02.969Z,1005.61
2017-03-29T09:50:13.006Z,1005.58
2017-03-29T09:51:22.728Z,1005.57
2017-03-29T09:52:32.457Z,1005.58
2017-03-29T09:53:42.807Z,1005.59
2017-03-29T09:54:53.180Z,1005.54
2017-03-29T09:56:03.532Z,1005.55
2017-03-29T09:57:13.887Z,1005.54
2017-03-29T09:58:24.227Z,1005.53
2017-03-29T09:59:34.563Z,1005.53
2017-03-29T10:00:44.596Z,1005.54
2017-03-29T10:01:54.944Z,1005.54
2017-03-29T10:03:05.304Z,1005.5
2017-03-29T10:04:15.028Z,1005.46
2017-03-29T10:05:25.383Z,1005.44
2017-03-29T10:06:35.731Z,1005.37
2017-03-29T10:07:46.077Z,1005.43
2017-03-29T10:08:56.107Z,1005.36
2017-03-29T10:10:06.458Z,1005.41
2017-03-29T10:11:16.501Z,1005.31
2017-03-29T10:12:26.548Z,1005.35
2017-03-29T10:13:36.603Z,1005.32
2017-03-29T10:14:46.960Z,1005.26
2017-03-29T10:15:57.335Z,1005.34
2017-03-29T10:17:07.705Z,1005.29
2017-03-29T10:18:18.059Z,1005.32
2017-03-29T10:19:28.422Z,1005.23
2017-03-29T10:20:38.771Z,1005.22
2017-03-29T10:21:49.111Z,1005.22
2017-03-29T10:22:59.139Z,1005.15
2017-03-29T10:24:09.176Z,1005.15
2017-03-29T10:25:19.232Z,1005.16
2017-03-29T10:26:29.590Z,1005.21
2017-03-29T10:27:39.945Z,1005.2
2017-03-29T10:28:49.988Z,1005.18
2017-03-29T10:30:00.330Z,1005.21
2017-03-29T10:31:10.386Z,1005.2
2017-03-29T10:32:20.445Z,1005.2
2017-03-29T10:33:30.804Z,1005.2
2017-03-29T10:34:40.865Z,1005.16
2017-03-29T10:35:50.578Z,1005.13
2017-03-29T10:37:00.925Z,1005.13
2017-03-29T10:38:11.265Z,1005.13
2017-03-29T10:39:21.353Z,1005.11
2017-03-29T10:40:31.392Z,1005.14
2017-03-29T10:41:41.747Z,1005.11
2017-03-29T10:42:52.112Z,1005.07
2017-03-29T10:44:02.486Z,1005.1
2017-03-29T10:45:12.538Z,1005.07
2017-03-29T10:46:22.893Z,1005.06
2017-03-29T10:47:33.235Z,1005.09
2017-03-29T10:48:43.585Z,1004.97
2017-03-29T10:49:53.950Z,1005.02
2017-03-29T10:51:04.358Z,1005.04
2017-03-29T10:52:14.715Z,1005.01
2017-03-29T10:53:25.070Z,1004.94
2017-03-29T10:54:35.421Z,1004.95
2017-03-29T10:55:45.758Z,1004.91
2017-03-29T10:56:55.805Z,1004.88
2017-03-29T10:58:05.843Z,1004.88
2017-03-29T10:59:15.890Z,1004.92
2017-03-29T11:00:25.938Z,1004.85
2017-03-29T11:01:36.015Z,1004.79
2017-03-29T11:02:46.420Z,1004.92
2017-03-29T11:03:56.795Z,1004.83
2017-03-29T11:05:06.848Z,1004.83
2017-03-29T11:06:16.567Z,1004.77
2017-03-29T11:07:26.639Z,1004.81
2017-03-29T11:08:36.700Z,1004.79
2017-03-29T11:09:46.123Z,1004.79
2017-03-29T11:10:56.482Z,1004.7
2017-03-29T11:12:06.828Z,1004.66
2017-03-29T11:13:16.868Z,1004.7
2017-03-29T11:14:27.251Z,1004.73
2017-03-29T11:15:37.606Z,1004.76
2017-03-29T11:16:47.978Z,1004.7
2017-03-29T11:17:58.336Z,1004.64
2017-03-29T11:19:08.717Z,1004.63
2017-03-29T11:20:18.771Z,1004.64
2017-03-29T11:21:28.837Z,1004.67
2017-03-29T11:22:38.899Z,1004.71
2017-03-29T11:23:49.269Z,1004.68
2017-03-29T11:24:59.959Z,1004.62
2017-03-29T11:26:10.317Z,1004.49
2017-03-29T11:27:20.656Z,1004.43
2017-03-29T11:34:51.806Z,1004.49
2017-03-29T11:36:01.846Z,1004.42
2017-03-29T11:37:12.222Z,1004.41
2017-03-29T11:38:22.615Z,1004.41
2017-03-29T11:39:32.977Z,1004.43
2017-03-29T11:40:43.351Z,1004.44
2017-03-29T11:41:53.388Z,1004.45
2017-03-29T11:43:03.430Z,1004.39
2017-03-29T11:44:13.466Z,1004.37
2017-03-29T11:45:23.803Z,1004.39
2017-03-29T11:46:33.531Z,1004.34
2017-03-29T11:47:43.576Z,1004.27
2017-03-29T11:48:53.325Z,1004.31
2017-03-29T11:50:03.692Z,1004.39
2017-03-29T11:51:14.052Z,1004.38
2017-03-29T11:52:24.109Z,1004.27
2017-03-29T11:53:34.500Z,1004.29
2017-03-29T11:54:44.528Z,1004.27
2017-03-29T11:55:54.561Z,1004.26
2017-03-29T11:57:04.611Z,1004.27
2017-03-29T11:58:14.956Z,1004.27
2017-03-29T11:59:25.298Z,1004.26
2017-03-29T12:00:35.330Z,1004.36
2017-03-29T12:01:45.392Z,1004.31
2017-03-29T12:02:55.430Z,1004.26
2017-03-29T12:04:05.786Z,1004.22
2017-03-29T12:05:15.837Z,1004.21
2017-03-29T12:06:25.881Z,1004.22
2017-03-29T12:07:35.926Z,1004.23
2017-03-29T12:08:45.950Z,1004.18
2017-03-29T12:09:56.238Z,1004.19
2017-03-29T12:11:06.261Z,1004.14
2017-03-29T12:12:16.595Z,1004.08
2017-03-29T12:13:26.948Z,1004.07
2017-03-29T12:14:36.997Z,1004.08
2017-03-29T12:15:47.345Z,1004.11
2017-03-29T12:16:57.700Z,1004.04
2017-03-29T12:18:08.066Z,1004.14
2017-03-29T12:19:18.415Z,1004.17
2017-03-29T12:20:28.775Z,1004.07
2017-03-29T12:21:39.123Z,1004
2017-03-29T12:22:49.164Z,1004.01
2017-03-29T12:23:59.511Z,1004
2017-03-29T12:25:09.868Z,1004.05
2017-03-29T12:26:20.223Z,1003.95
2017-03-29T12:27:30.252Z,1003.98
2017-03-29T12:28:40.606Z,1004.08
2017-03-29T12:29:50.999Z,1004.07
2017-03-29T12:31:01.056Z,1003.98
2017-03-29T12:32:11.106Z,1004
2017-03-29T12:33:21.452Z,1003.91
2017-03-29T12:34:31.825Z,1004.01
2017-03-29T12:35:41.556Z,1003.89
2017-03-29T12:36:51.913Z,1003.87
2017-03-29T12:38:02.263Z,1003.89
2017-03-29T12:39:12.611Z,1003.9
2017-03-29T12:40:22.967Z,1003.86
2017-03-29T12:41:33.332Z,1003.86
2017-03-29T12:42:43.364Z,1003.83
2017-03-29T12:43:52.798Z,1003.76
2017-03-29T12:45:02.832Z,1003.78
2017-03-29T12:46:13.198Z,1003.78
2017-03-29T12:47:23.545Z,1003.69
2017-03-29T12:48:33.901Z,1003.7
2017-03-29T12:49:43.943Z,1003.69
2017-03-29T12:50:54.296Z,1003.71
2017-03-29T12:52:04.647Z,1003.69
2017-03-29T12:53:14.994Z,1003.67
2017-03-29T12:54:25.334Z,1003.67
2017-03-29T12:55:35.365Z,1003.6
2017-03-29T12:56:45.729Z,1003.7
2017-03-29T12:57:56.090Z,1003.74
2017-03-29T12:59:06.452Z,1003.69
2017-03-29T13:00:16.804Z,1003.74
2017-03-29T13:01:26.845Z,1003.67
2017-03-29T13:02:36.895Z,1003.65
2017-03-29T13:03:47.242Z,1003.59
2017-03-29T13:04:57.593Z,1003.62
2017-03-29T13:06:07.612Z,1003.68
2017-03-29T13:07:17.655Z,1003.54
2017-03-29T13:08:27.998Z,1003.54
2017-03-29T13:09:38.046Z,1003.56
2017-03-29T13:10:48.093Z,1003.57
2017-03-29T13:11:58.429Z,1003.54
2017-03-29T13:13:08.479Z,1003.5
2017-03-29T13:14:18.517Z,1003.5
2017-03-29T13:15:28.865Z,1003.51
2017-03-29T13:16:38.918Z,1003.43
2017-03-29T13:17:49.303Z,1003.48
2017-03-29T13:18:59.689Z,1003.54
2017-03-29T13:20:09.791Z,1003.49
2017-03-29T13:21:19.812Z,1003.43
2017-03-29T13:22:30.152Z,1003.44
2017-03-29T13:23:40.527Z,1003.46
2017-03-29T13:24:50.878Z,1003.42
2017-03-29T13:26:00.930Z,1003.37
2017-03-29T13:27:10.994Z,1003.41
2017-03-29T13:28:21.019Z,1003.47
2017-03-29T13:29:31.069Z,1003.49
2017-03-29T13:30:41.107Z,1003.46
2017-03-29T13:31:51.475Z,1003.42
2017-03-29T13:33:01.825Z,1003.4
2017-03-29T13:34:12.186Z,1003.4
2017-03-29T13:35:22.217Z,1003.35
2017-03-29T13:36:32.578Z,1003.35
2017-03-29T13:37:42.623Z,1003.38
2017-03-29T13:38:52.664Z,1003.3
2017-03-29T13:40:02.739Z,1003.34
2017-03-29T13:41:13.098Z,1003.35
2017-03-29T13:42:23.140Z,1003.3
2017-03-29T13:43:33.510Z,1003.33
2017-03-29T13:44:43.858Z,1003.39
2017-03-29T13:45:54.204Z,1003.38
2017-03-29T13:47:04.247Z,1003.39
2017-03-29T13:48:14.285Z,1003.35
2017-03-29T13:49:24.625Z,1003.34
2017-03-29T13:50:34.982Z,1003.29
2017-03-29T13:51:45.354Z,1003.35
2017-03-29T13:52:55.711Z,1003.29
2017-03-29T13:54:05.752Z,1003.22
2017-03-29T13:55:16.115Z,1003.25
2017-03-29T13:56:26.462Z,1003.26
2017-03-29T13:57:36.201Z,1003.28
2017-03-29T13:58:46.243Z,1003.25
2017-03-29T13:59:56.282Z,1003.25
2017-03-29T14:01:06.327Z,1003.31
2017-03-29T14:02:16.672Z,1003.27
2017-03-29T14:03:26.729Z,1003.3
2017-03-29T14:04:37.091Z,1003.25
2017-03-29T14:05:47.479Z,1003.27
2017-03-29T14:06:57.824Z,1003.28
2017-03-29T14:08:07.871Z,1003.19
2017-03-29T14:09:18.200Z,1003.25
2017-03-29T14:10:28.240Z,1003.23
2017-03-29T14:11:38.291Z,1003.24
2017-03-29T14:12:48.645Z,1003.26
2017-03-29T14:13:58.729Z,1003.26
2017-03-29T14:15:08.772Z,1003.22
2017-03-29T14:16:18.819Z,1003.26
2017-03-29T14:17:29.166Z,1003.23
2017-03-29T14:18:38.914Z,1003.15
2017-03-29T14:19:49.286Z,1003.3
2017-03-29T14:20:59.625Z,1003.15
2017-03-29T14:22:09.985Z,1003.19
2017-03-29T14:23:20.349Z,1003.16
2017-03-29T14:24:30.697Z,1003.13
2017-03-29T14:25:41.049Z,1003.1
2017-03-29T14:26:51.086Z,1003.12
2017-03-29T14:28:01.451Z,1003.21
2017-03-29T14:29:11.799Z,1003.29
2017-03-29T14:30:21.514Z,1003.17
2017-03-29T14:31:31.796Z,1003.08
2017-03-29T14:32:42.173Z,1003.11
2017-03-29T14:33:52.504Z,1003.12
2017-03-29T14:35:02.851Z,1003.14
2017-03-29T14:36:12.904Z,1003.17
2017-03-29T14:37:23.249Z,1003.11
2017-03-29T14:38:33.622Z,1003.07
2017-03-29T14:39:43.364Z,1003.07
2017-03-29T14:40:53.720Z,1003.1
2017-03-29T14:42:03.747Z,1003.03
2017-03-29T14:43:14.089Z,1003.1
2017-03-29T14:44:24.437Z,1003.06
2017-03-29T14:45:34.778Z,1003.06
2017-03-29T14:46:45.119Z,1003.08
2017-03-29T14:47:55.480Z,1003.05